createdAt,value
2023-01-30T00:00:13.137Z,5.65
2023-01-30T00:02:41.627Z,6.15
2023-01-30T00:05:10.132Z,6.28
2023-01-30T00:07:38.354Z,6.40
2023-01-30T00:10:06.894Z,6.60
2023-01-30T00:12:35.030Z,6.75
2023-01-30T00:15:03.484Z,7.57
2023-01-30T00:17:31.819Z,7.43
2023-01-30T00:19:59.911Z,5.95
2023-01-30T00:22:28.275Z,6.30
2023-01-30T00:24:56.586Z,6.72
2023-01-30T00:27:24.873Z,5.40
2023-01-30T00:30:02.508Z,6.53
2023-01-30T00:35:21.995Z,5.75
2023-01-30T00:37:50.206Z,6.43
2023-01-30T00:40:18.877Z,5.72
2023-01-30T00:45:15.365Z,6.70
2023-01-30T00:47:44.206Z,5.03
2023-01-30T00:50:12.569Z,5.65
2023-01-30T00:52:40.790Z,5.43
2023-01-30T00:55:09.608Z,6.50
2023-01-30T00:57:37.794Z,5.78
2023-01-30T01:00:06.709Z,6.05
2023-01-30T01:02:35.517Z,5.93
2023-01-30T01:05:04.068Z,5.25
2023-01-30T01:07:32.286Z,5.55
2023-01-30T01:10:00.532Z,6.32
2023-01-30T01:12:28.749Z,6.07
2023-01-30T01:14:56.901Z,5.15
2023-01-30T01:17:25.339Z,5.43
2023-01-30T01:19:53.572Z,5.53
2023-01-30T01:22:21.878Z,5.38
2023-01-30T01:24:49.948Z,6.13
2023-01-30T01:27:18.148Z,5.55
2023-01-30T01:29:46.440Z,5.60
2023-01-30T01:32:14.575Z,4.38
2023-01-30T01:34:42.940Z,5.30
2023-01-30T01:37:13.522Z,5.43
2023-01-30T01:39:43.485Z,5.15
2023-01-30T01:42:13.850Z,4.85
2023-01-30T01:45:22.844Z,4.78
2023-01-30T01:48:02.197Z,5.25
2023-01-30T01:50:54.112Z,5.13
2023-01-30T01:53:27.451Z,5.00
2023-01-30T01:55:59.252Z,5.75
2023-01-30T01:58:40.102Z,5.10
2023-01-30T02:01:08.610Z,5.45
2023-01-30T02:03:41.896Z,4.85
2023-01-30T02:06:12.534Z,5.00
2023-01-30T02:09:06.205Z,4.57
2023-01-30T02:11:51.594Z,5.00
2023-01-30T02:14:21.382Z,5.30
2023-01-30T02:16:51.365Z,5.03
2023-01-30T02:19:33.718Z,5.18
2023-01-30T02:22:46.474Z,5.03
2023-01-30T02:25:36.431Z,4.78
2023-01-30T02:28:41.754Z,4.40
2023-01-30T02:31:25.485Z,4.20
2023-01-30T02:34:16.222Z,4.55
2023-01-30T02:37:13.428Z,5.07
2023-01-30T02:40:06.116Z,4.72
2023-01-30T02:42:49.705Z,4.30
2023-01-30T02:45:27.171Z,5.00
2023-01-30T02:48:04.685Z,5.05
2023-01-30T02:51:01.114Z,5.57
2023-01-30T02:53:36.605Z,4.63
2023-01-30T02:56:06.789Z,5.20
2023-01-30T02:58:45.375Z,5.15
2023-01-30T03:03:58.270Z,4.30
2023-01-30T03:06:32.801Z,4.05
2023-01-30T03:09:19.398Z,4.45
2023-01-30T03:12:09.270Z,4.95
2023-01-30T03:14:56.222Z,3.92
2023-01-30T03:17:27.374Z,3.75
2023-01-30T03:19:56.440Z,5.28
2023-01-30T03:24:55.010Z,3.83
2023-01-30T03:27:24.330Z,4.15
2023-01-30T03:29:52.511Z,4.47
2023-01-30T03:32:21.710Z,4.72
2023-01-30T03:34:51.025Z,4.68
2023-01-30T03:37:19.364Z,4.63
2023-01-30T03:39:47.793Z,3.92
2023-01-30T03:44:47.326Z,4.35
2023-01-30T03:47:15.936Z,5.00
2023-01-30T03:49:44.612Z,4.60
2023-01-30T03:52:12.869Z,5.03
2023-01-30T03:54:41.051Z,4.40
2023-01-30T03:57:09.618Z,4.32
2023-01-30T03:59:38.081Z,4.18
2023-01-30T04:02:10.262Z,4.43
2023-01-30T04:04:38.630Z,4.10
2023-01-30T04:07:09.839Z,4.45
2023-01-30T04:09:40.061Z,4.20
2023-01-30T04:12:08.752Z,5.78
2023-01-30T04:14:43.743Z,4.90
2023-01-30T04:17:26.544Z,4.13
2023-01-30T04:20:20.620Z,4.30
2023-01-30T04:22:55.092Z,3.72
2023-01-30T04:25:24.081Z,4.13
2023-01-30T04:27:52.363Z,4.65
2023-01-30T04:30:25.474Z,4.35
2023-01-30T04:33:02.842Z,4.25
2023-01-30T04:35:31.349Z,4.28
2023-01-30T04:37:59.483Z,5.03
2023-01-30T04:40:28.735Z,4.45
2023-01-30T04:42:57.342Z,4.57
2023-01-30T04:45:45.266Z,4.63
2023-01-30T04:48:14.160Z,4.18
2023-01-30T04:50:45.379Z,4.60
2023-01-30T04:53:14.114Z,5.18
2023-01-30T04:58:10.530Z,4.22
2023-01-30T05:00:39.335Z,4.90
2023-01-30T05:03:07.626Z,4.22
2023-01-30T05:05:35.801Z,4.40
2023-01-30T05:08:04.427Z,4.80
2023-01-30T05:10:32.671Z,4.05
2023-01-30T05:13:07.169Z,3.58
2023-01-30T05:15:35.800Z,3.72
2023-01-30T05:18:04.065Z,4.18
2023-01-30T05:20:32.157Z,5.03
2023-01-30T05:23:00.465Z,4.03
2023-01-30T05:25:31.224Z,4.88
2023-01-30T05:27:59.618Z,4.05
2023-01-30T05:30:27.752Z,4.10
2023-01-30T05:32:58.131Z,4.63
2023-01-30T05:35:26.318Z,4.45
2023-01-30T05:37:54.427Z,3.90
2023-01-30T05:40:22.717Z,4.28
2023-01-30T05:42:50.861Z,4.22
2023-01-30T05:45:19.329Z,4.28
2023-01-30T05:47:52.677Z,4.45
2023-01-30T05:50:21.939Z,4.50
2023-01-30T05:52:50.151Z,3.78
2023-01-30T05:55:18.729Z,4.28
2023-01-30T05:57:47.138Z,4.85
2023-01-30T06:00:15.871Z,4.13
2023-01-30T06:02:44.158Z,4.10
2023-01-30T06:05:12.487Z,4.55
2023-01-30T06:07:40.558Z,3.78
2023-01-30T06:10:09.326Z,4.25
2023-01-30T06:12:37.704Z,4.32
2023-01-30T06:15:07.077Z,4.10
2023-01-30T06:17:35.337Z,4.35
2023-01-30T06:20:03.869Z,3.20
2023-01-30T06:22:32.117Z,4.57
2023-01-30T06:25:00.314Z,4.00
2023-01-30T06:27:28.549Z,4.40
2023-01-30T06:29:56.744Z,4.88
2023-01-30T06:32:25.093Z,4.13
2023-01-30T06:34:53.241Z,4.45
2023-01-30T06:37:21.461Z,4.55
2023-01-30T06:39:49.706Z,4.03
2023-01-30T06:42:17.884Z,3.88
2023-01-30T06:44:46.004Z,3.40
2023-01-30T06:47:14.269Z,4.13
2023-01-30T06:49:42.438Z,4.18
2023-01-30T06:52:11.074Z,3.95
2023-01-30T06:54:39.264Z,4.10
2023-01-30T06:57:07.568Z,3.65
2023-01-30T06:59:35.983Z,4.80
2023-01-30T07:02:04.268Z,3.85
2023-01-30T07:04:32.671Z,4.85
2023-01-30T07:07:00.921Z,4.30
2023-01-30T07:09:29.056Z,5.03
2023-01-30T07:11:57.482Z,3.85
2023-01-30T07:14:25.573Z,4.47
2023-01-30T07:16:53.958Z,4.97
2023-01-30T07:19:22.224Z,4.95
2023-01-30T07:21:50.534Z,4.38
2023-01-30T07:24:18.896Z,5.85
2023-01-30T07:26:55.923Z,4.82
2023-01-30T07:29:24.177Z,4.57
2023-01-30T07:31:53.013Z,4.07
2023-01-30T07:34:21.321Z,4.88
2023-01-30T07:36:49.611Z,5.13
2023-01-30T07:39:17.750Z,4.43
2023-01-30T07:41:46.083Z,4.68
2023-01-30T07:44:14.578Z,4.85
2023-01-30T07:46:42.739Z,4.55
2023-01-30T07:49:11.801Z,5.07
2023-01-30T07:51:40.024Z,4.80
2023-01-30T07:54:08.188Z,4.18
2023-01-30T07:56:36.566Z,5.20
2023-01-30T07:59:04.887Z,4.30
2023-01-30T08:01:33.779Z,4.28
2023-01-30T08:06:29.815Z,4.90
2023-01-30T08:08:58.130Z,4.57
2023-01-30T08:11:26.530Z,4.82
2023-01-30T08:13:54.975Z,4.82
2023-01-30T08:16:23.396Z,4.53
2023-01-30T08:18:51.645Z,4.82
2023-01-30T08:21:19.890Z,4.20
2023-01-30T08:23:48.210Z,4.43
2023-01-30T08:26:16.554Z,4.15
2023-01-30T08:28:44.832Z,5.22
2023-01-30T08:31:14.867Z,4.25
2023-01-30T08:33:43.280Z,9.23
2023-01-30T08:36:11.795Z,9.07
2023-01-30T08:41:12.514Z,6.15
2023-01-30T08:43:43.055Z,5.95
2023-01-30T08:46:17.534Z,5.93
2023-01-30T08:48:50.493Z,5.38
2023-01-30T08:51:18.974Z,5.38
2023-01-30T08:53:47.260Z,6.03
2023-01-30T08:56:15.459Z,5.70
2023-01-30T08:58:43.788Z,5.20
2023-01-30T09:01:11.995Z,5.22
2023-01-30T09:03:40.402Z,6.22
2023-01-30T09:06:09.049Z,5.35
2023-01-30T09:08:37.323Z,4.97
2023-01-30T09:11:06.671Z,5.40
2023-01-30T09:13:36.099Z,5.78
2023-01-30T09:16:06.630Z,5.00
2023-01-30T09:18:34.923Z,4.85
2023-01-30T09:21:06.649Z,4.65
2023-01-30T09:23:35.171Z,5.97
2023-01-30T09:26:04.463Z,6.50
2023-01-30T09:28:33.230Z,6.80
2023-01-30T09:33:33.103Z,5.28
2023-01-30T09:36:01.457Z,5.43
2023-01-30T09:38:29.731Z,5.93
2023-01-30T09:41:01.074Z,5.03
2023-01-30T09:43:44.841Z,5.22
2023-01-30T09:46:22.086Z,5.38
2023-01-30T09:49:15.061Z,5.47
2023-01-30T09:52:14.293Z,5.20
2023-01-30T09:54:44.995Z,5.05
2023-01-30T09:57:20.149Z,5.43
2023-01-30T09:59:51.650Z,4.97
2023-01-30T10:02:38.180Z,4.40
2023-01-30T10:05:07.723Z,4.75
2023-01-30T10:07:45.332Z,5.07
2023-01-30T10:10:22.419Z,4.53
2023-01-30T10:13:16.922Z,4.93
2023-01-30T10:15:57.834Z,5.20
2023-01-30T10:18:55.149Z,4.22
2023-01-30T10:21:41.580Z,4.57
2023-01-30T10:24:36.229Z,4.47
2023-01-30T10:27:09.860Z,4.70
2023-01-30T10:29:40.826Z,4.82
2023-01-30T10:32:28.371Z,5.05
2023-01-30T10:35:02.496Z,4.33
2023-01-30T10:37:49.116Z,5.35
2023-01-30T10:40:38.817Z,4.65
2023-01-30T10:43:31.371Z,4.50
2023-01-30T10:46:02.611Z,3.92
2023-01-30T10:48:49.267Z,4.15
2023-01-30T10:51:30.945Z,4.88
2023-01-30T10:54:20.083Z,4.40
2023-01-30T10:56:55.346Z,3.72
2023-01-30T10:59:29.663Z,4.93
2023-01-30T11:02:14.837Z,4.15
2023-01-30T11:04:59.465Z,4.65
2023-01-30T11:07:34.807Z,3.30
2023-01-30T11:10:03.110Z,3.83
2023-01-30T11:12:31.619Z,3.83
2023-01-30T11:15:01.891Z,4.32
2023-01-30T11:17:31.798Z,3.92
2023-01-30T11:20:14.033Z,3.95
2023-01-30T11:23:06.200Z,3.42
2023-01-30T11:25:52.854Z,4.15
2023-01-30T11:28:28.565Z,3.40
2023-01-30T11:31:01.845Z,3.30
2023-01-30T11:33:49.965Z,4.05
2023-01-30T11:36:31.243Z,4.18
2023-01-30T11:39:21.210Z,4.28
2023-01-30T11:41:55.291Z,3.75
2023-01-30T11:44:36.635Z,3.92
2023-01-30T11:47:09.809Z,3.63
2023-01-30T11:49:47.067Z,4.53
2023-01-30T11:52:35.073Z,4.85
2023-01-30T11:55:08.565Z,4.25
2023-01-30T11:57:46.165Z,4.90
2023-01-30T12:00:23.556Z,4.60
2023-01-30T12:02:54.330Z,4.57
2023-01-30T12:05:27.394Z,4.90
2023-01-30T12:08:13.858Z,4.00
2023-01-30T12:10:44.278Z,4.47
2023-01-30T12:13:30.948Z,4.65
2023-01-30T12:16:16.812Z,4.80
2023-01-30T12:19:05.943Z,4.40
2023-01-30T12:22:12.619Z,4.07
2023-01-30T12:24:56.663Z,3.83
2023-01-30T12:27:46.704Z,4.32
2023-01-30T12:33:11.458Z,4.00
2023-01-30T12:36:12.371Z,4.80
2023-01-30T12:39:00.885Z,4.15
2023-01-30T12:41:56.512Z,4.40
2023-01-30T12:44:52.468Z,4.75
2023-01-30T12:47:45.058Z,4.50
2023-01-30T12:50:36.689Z,4.65
2023-01-30T12:53:22.379Z,3.40
2023-01-30T12:56:09.154Z,4.68
2023-01-30T12:58:45.897Z,4.65
2023-01-30T13:01:27.022Z,4.55
2023-01-30T13:04:29.417Z,4.93
2023-01-30T13:07:32.363Z,4.95
2023-01-30T13:10:18.262Z,5.95
2023-01-30T13:13:04.574Z,5.25
2023-01-30T13:15:36.576Z,5.25
2023-01-30T13:18:11.032Z,5.32
2023-01-30T13:21:00.531Z,5.43
2023-01-30T13:23:39.703Z,4.80
2023-01-30T13:26:28.980Z,5.18
2023-01-30T13:29:00.799Z,4.97
2023-01-30T13:31:38.154Z,5.10
2023-01-30T13:34:23.144Z,4.88
2023-01-30T13:37:09.330Z,5.00
2023-01-30T13:39:56.951Z,5.55
2023-01-30T13:42:37.456Z,5.93
2023-01-30T13:45:07.687Z,5.95
2023-01-30T13:47:41.689Z,4.78
2023-01-30T13:50:41.753Z,5.90
2023-01-30T13:53:19.658Z,4.20
2023-01-30T13:56:32.969Z,5.40
2023-01-30T13:59:13.938Z,6.05
2023-01-30T14:02:00.546Z,5.97
2023-01-30T14:04:40.963Z,5.10
2023-01-30T14:07:26.219Z,5.13
2023-01-30T14:10:10.377Z,5.70
2023-01-30T14:12:43.827Z,5.13
2023-01-30T14:15:16.962Z,5.85
2023-01-30T14:18:06.448Z,5.70
2023-01-30T14:20:47.539Z,5.45
2023-01-30T14:23:23.378Z,5.88
2023-01-30T14:25:53.912Z,5.78
2023-01-30T14:28:22.220Z,5.85
2023-01-30T14:30:51.667Z,5.45
2023-01-30T14:33:23.196Z,5.00
2023-01-30T14:36:04.051Z,5.25
2023-01-30T14:38:34.022Z,5.07
2023-01-30T14:41:02.341Z,6.28
2023-01-30T14:43:56.811Z,5.63
2023-01-30T14:46:25.030Z,6.18
2023-01-30T14:49:14.095Z,5.28
2023-01-30T14:51:48.413Z,6.30
2023-01-30T14:54:16.706Z,6.20
2023-01-30T14:57:06.519Z,5.72
2023-01-30T14:59:36.589Z,5.78
2023-01-30T15:02:14.036Z,5.63
2023-01-30T15:04:54.297Z,5.70
2023-01-30T15:07:28.579Z,6.05
2023-01-30T15:10:06.395Z,5.43
2023-01-30T15:12:45.125Z,5.40
2023-01-30T15:18:20.927Z,6.45
2023-01-30T15:21:07.736Z,6.88
2023-01-30T15:23:59.163Z,6.88
2023-01-30T15:26:39.210Z,6.60
2023-01-30T15:29:35.497Z,6.30
2023-01-30T15:32:20.389Z,6.22
2023-01-30T15:34:52.615Z,6.90
2023-01-30T15:37:36.786Z,6.43
2023-01-30T15:40:33.760Z,6.47
2023-01-30T15:43:01.978Z,6.28
2023-01-30T15:45:49.001Z,6.30
2023-01-30T15:48:50.020Z,6.88
2023-01-30T15:51:26.255Z,6.00
2023-01-30T15:53:57.273Z,6.15
2023-01-30T15:56:29.117Z,6.07
2023-01-30T15:59:00.187Z,6.78
2023-01-30T16:01:28.939Z,6.72
2023-01-30T16:06:34.911Z,6.88
2023-01-30T16:09:19.662Z,6.13
2023-01-30T16:11:48.850Z,6.30
2023-01-30T16:14:22.004Z,6.20
2023-01-30T16:16:50.481Z,8.15
2023-01-30T16:19:26.894Z,6.68
2023-01-30T16:22:02.346Z,6.68
2023-01-30T16:24:33.244Z,7.45
2023-01-30T16:27:06.053Z,7.40
2023-01-30T16:29:46.455Z,6.97
2023-01-30T16:32:15.725Z,6.53
2023-01-30T16:34:44.603Z,7.13
2023-01-30T16:37:24.720Z,6.72
2023-01-30T16:40:15.133Z,8.10
2023-01-30T16:42:58.764Z,6.95
2023-01-30T16:45:35.890Z,6.60
2023-01-30T16:48:19.649Z,6.47
2023-01-30T16:51:00.973Z,6.47
2023-01-30T16:53:31.703Z,8.07
2023-01-30T16:56:03.517Z,7.43
2023-01-30T16:58:37.341Z,7.63
2023-01-30T17:01:08.535Z,6.95
2023-01-30T17:03:41.421Z,6.63
2023-01-30T17:06:27.701Z,6.53
2023-01-30T17:08:57.347Z,6.82
2023-01-30T17:11:39.107Z,7.20
2023-01-30T17:14:27.290Z,7.00
2023-01-30T17:17:12.418Z,7.50
2023-01-30T17:19:40.941Z,7.20
2023-01-30T17:22:18.937Z,7.30
2023-01-30T17:24:47.265Z,7.68
2023-01-30T17:27:17.493Z,7.07
2023-01-30T17:29:46.084Z,6.90
2023-01-30T17:32:16.521Z,7.80
2023-01-30T17:34:45.114Z,6.40
2023-01-30T17:37:22.859Z,6.63
2023-01-30T17:39:51.439Z,6.37
2023-01-30T17:42:19.686Z,6.82
2023-01-30T17:44:48.057Z,7.22
2023-01-30T17:47:16.490Z,6.95
2023-01-30T17:49:44.769Z,6.80
2023-01-30T17:52:14.582Z,6.47
2023-01-30T17:54:43.077Z,7.30
2023-01-30T17:57:13.563Z,7.63
2023-01-30T17:59:41.937Z,6.72
2023-01-30T18:02:13.955Z,7.68
2023-01-30T18:04:42.279Z,8.07
2023-01-30T18:07:15.422Z,8.48
2023-01-30T18:09:44.005Z,8.93
2023-01-30T18:12:12.367Z,9.20
2023-01-30T18:14:40.771Z,8.57
2023-01-30T18:17:10.506Z,9.32
2023-01-30T18:19:38.976Z,8.10
2023-01-30T18:22:07.364Z,8.43
2023-01-30T18:24:35.704Z,7.88
2023-01-30T18:27:04.091Z,8.25
2023-01-30T18:29:32.536Z,8.07
2023-01-30T18:32:00.942Z,8.98
2023-01-30T18:34:29.183Z,8.30
2023-01-30T18:36:57.375Z,9.05
2023-01-30T18:39:25.913Z,8.32
2023-01-30T18:41:54.002Z,8.55
2023-01-30T18:44:22.409Z,9.05
2023-01-30T18:46:50.942Z,8.77
2023-01-30T18:49:19.326Z,9.02
2023-01-30T18:51:47.672Z,9.50
2023-01-30T18:54:16.008Z,8.27
2023-01-30T18:56:44.429Z,9.63
2023-01-30T18:59:12.774Z,9.70
2023-01-30T19:01:41.691Z,9.20
2023-01-30T19:04:11.477Z,9.05
2023-01-30T19:06:42.512Z,9.95
2023-01-30T19:09:15.946Z,9.00
2023-01-30T19:11:44.510Z,9.52
2023-01-30T19:14:13.161Z,8.48
2023-01-30T19:19:10.495Z,9.02
2023-01-30T19:21:39.455Z,9.93
2023-01-30T19:24:12.039Z,9.02
2023-01-30T19:26:40.699Z,9.48
2023-01-30T19:29:09.445Z,7.18
2023-01-30T19:31:38.158Z,6.88
2023-01-30T19:34:06.545Z,7.15
2023-01-30T19:36:36.641Z,7.80
2023-01-30T19:39:07.707Z,7.78
2023-01-30T19:41:37.076Z,8.88
2023-01-30T19:44:08.591Z,7.70
2023-01-30T19:46:37.202Z,7.95
2023-01-30T19:49:05.963Z,8.32
2023-01-30T19:51:35.614Z,8.70
2023-01-30T19:54:07.324Z,8.13
2023-01-30T19:56:36.356Z,8.88
2023-01-30T19:59:04.917Z,7.95
2023-01-30T20:06:32.651Z,7.80
2023-01-30T20:09:03.765Z,9.18
2023-01-30T20:11:33.673Z,8.55
2023-01-30T20:14:05.256Z,7.95
2023-01-30T20:16:35.247Z,9.05
2023-01-30T20:19:09.874Z,8.80
2023-01-30T20:21:38.160Z,8.93
2023-01-30T20:24:06.633Z,8.45
2023-01-30T20:29:05.331Z,8.32
2023-01-30T20:31:33.914Z,8.73
2023-01-30T20:34:04.886Z,8.63
2023-01-30T20:36:33.909Z,8.75
2023-01-30T20:39:03.254Z,8.40
2023-01-30T20:41:31.872Z,8.48
2023-01-30T20:44:01.232Z,9.40
2023-01-30T20:46:32.063Z,7.93
2023-01-30T20:49:00.685Z,10.13
2023-01-30T20:54:00.651Z,8.85
2023-01-30T20:56:33.452Z,8.63
2023-01-30T20:59:04.767Z,8.52
2023-01-30T21:01:34.061Z,8.50
2023-01-30T21:04:07.626Z,8.88
2023-01-30T21:06:43.519Z,8.15
2023-01-30T21:09:22.685Z,9.65
2023-01-30T21:11:52.272Z,8.57
2023-01-30T21:14:20.643Z,7.50
2023-01-30T21:16:53.417Z,9.00
2023-01-30T21:19:22.241Z,9.18
2023-01-30T21:21:55.197Z,8.25
2023-01-30T21:24:29.649Z,9.93
2023-01-30T21:26:58.241Z,12.20
2023-01-30T21:31:56.864Z,12.52
2023-01-30T21:34:25.415Z,11.52
2023-01-30T21:36:53.739Z,13.18
2023-01-30T21:39:22.145Z,11.82
2023-01-30T21:41:50.384Z,13.13
2023-01-30T21:44:20.745Z,12.23
2023-01-30T21:46:49.667Z,11.63
2023-01-30T21:49:18.950Z,12.07
2023-01-30T21:51:49.446Z,12.13
2023-01-30T21:54:19.225Z,12.68
2023-01-30T21:56:48.089Z,11.60
2023-01-30T21:59:16.988Z,11.80
2023-01-30T22:01:45.514Z,11.00
2023-01-30T22:04:15.335Z,11.82
2023-01-30T22:06:44.145Z,12.35
2023-01-30T22:09:16.596Z,11.13
2023-01-30T22:11:46.134Z,10.98
2023-01-30T22:14:14.788Z,11.15
2023-01-30T22:16:43.207Z,10.15
2023-01-30T22:19:11.659Z,10.90
2023-01-30T22:21:40.851Z,11.57
2023-01-30T22:24:10.043Z,10.05
2023-01-30T22:26:39.561Z,10.57
2023-01-30T22:29:08.083Z,11.38
2023-01-30T22:31:38.557Z,9.88
2023-01-30T22:34:08.033Z,10.93
2023-01-30T22:36:36.389Z,10.52
2023-01-30T22:39:05.915Z,10.45
2023-01-30T22:41:36.358Z,10.35
2023-01-30T22:44:09.048Z,10.05
2023-01-30T22:46:40.109Z,10.10
2023-01-30T22:49:12.003Z,9.05
2023-01-30T22:51:42.416Z,9.32
2023-01-30T22:56:48.615Z,9.20
2023-01-30T22:59:17.088Z,9.60
2023-01-30T23:01:50.011Z,9.57
2023-01-30T23:04:23.915Z,10.40
2023-01-30T23:06:53.158Z,9.57
2023-01-30T23:09:23.715Z,9.90
2023-01-30T23:11:56.413Z,8.82
2023-01-30T23:14:24.940Z,10.18
2023-01-30T23:16:53.316Z,9.63
2023-01-30T23:19:21.804Z,9.55
2023-01-30T23:21:50.141Z,9.93
2023-01-30T23:24:21.164Z,9.18
2023-01-30T23:26:52.446Z,9.63
2023-01-30T23:29:21.540Z,9.55
2023-01-30T23:31:49.847Z,9.07
2023-01-30T23:34:19.949Z,9.38
2023-01-30T23:36:48.436Z,9.18
2023-01-30T23:39:16.711Z,9.13
2023-01-30T23:41:45.186Z,9.13
2023-01-30T23:44:13.421Z,8.20
2023-01-30T23:46:42.804Z,8.55
2023-01-30T23:49:14.285Z,9.18
2023-01-30T23:51:45.406Z,8.25
2023-01-30T23:54:14.800Z,8.52
2023-01-30T23:56:45.053Z,8.52
2023-01-30T23:59:13.552Z,8.07
